Accueil
METAR-TAF:

METAR-TAF

Aéroports :

Aéroport Federico-Fellini

Rimini, Italie

latitude: 44-02N, longitude: 012-37E, altitude: 12 m

Observation

Le bulletin a été fait il y a 19 minutes, à 06:20 UTC
Vent 3 kt de ouest
Température 9°C
Humidité 93%
Pression 1021 hPa
Visibilité: 2500 m
Nuages fragmentés à une hauteur de 4500 ft
brume

METAR: LIPR 190620Z 26003KT 2500 BR BKN045 09/08 Q1021

Heure: 07:39 (06:39 UTC)

Prévision

Le bulletin a été fait il y a 1 heure et 39 minutes, à 05:00 UTC
Prévision valable du 19 à 06 UTC au 19 à 15 UTC
Vent 5 kt de direction variable
Visibilité: 1500 m
Nuages fragmentés à une hauteur de 1000 ft
brume
Evoluant progressivement
du 19 à 07 UTC au 19 à 09 UTC
Vent 10 kt de nord-ouest
Visibilité: 6000 m

TAF: LIPR 190500Z 1906/1915 VRB05KT 1500 BR BKN010 BECMG 1907/1909 31010KT 6000 NSC

Observations et prévisions météorologiques de plus de 4000 aéroports (messages METAR et TAF).

Les stations disponibles sont représentées par des disques jaunes et rouges sur la carte.

Passer la souris dessus pour voir le nom de la station.

Cliquer dessus pour voir les observations et prévisions météorologiques.

Pour changer de carte: cliquez sur les boutons verts avec une croix noire pour zoomer, sur le bouton vert avec un tiret pour effectuer un zoom arrière, ou sur les flèches vertes pour les cartes adjacentes.


METAR-TAF: